Glassell Park, California
Current Conditions -  °F | °C
As of 6:47 PM on Friday 24 Oct 2014 (Local Time) from KCQT Reporting Station
Clear Clear  
Wind Chill: 74°   Ceiling: Unl
Heat Index: 74°   Visibility: 10mi
Dew Point: 58°   Wind: 0mph
Humidity: 57%   Direction: NA
Pressure: 29.93"   Gusts: NA
Location:  34.1092°N, 118.228°W
Report Text: KCQT 250147Z AUTO 00000KT 10SM CLR 23/14 A2993 RMK AO2 SLP133 T02330144
Loading
Personal Weather Stations






























Interactive Weather Map
Tropical Storm Tracking
New forecast layout! Learn more

10-Day Weather Forecast

Advertisements
Track Severe Weather on mobile